createdAt,value
2022-12-20T00:00:10.643Z,61.16
2022-12-20T00:03:14.261Z,61.36
2022-12-20T00:06:18.513Z,62.27
2022-12-20T00:09:21.664Z,60.27
2022-12-20T00:12:24.763Z,57.99
2022-12-20T00:15:27.653Z,59.15
2022-12-20T00:18:30.876Z,60.21
2022-12-20T00:21:35.260Z,60.43
2022-12-20T00:24:38.487Z,61.58
2022-12-20T00:27:41.578Z,61.17
2022-12-20T00:30:44.495Z,61.60
2022-12-20T00:33:49.483Z,62.43
2022-12-20T00:36:52.497Z,62.17
2022-12-20T00:39:55.484Z,60.61
2022-12-20T00:42:58.471Z,58.87
2022-12-20T00:46:02.073Z,57.89
2022-12-20T00:49:06.805Z,58.44
2022-12-20T00:52:09.796Z,59.63
2022-12-20T00:55:12.907Z,59.36
2022-12-20T00:58:16.183Z,59.35
2022-12-20T01:01:22.908Z,60.61
2022-12-20T01:04:25.952Z,60.96
2022-12-20T01:07:28.942Z,62.03
2022-12-20T01:10:32.544Z,62.16
2022-12-20T01:13:37.982Z,61.77
2022-12-20T01:16:44.253Z,60.66
2022-12-20T01:19:46.324Z,58.59
2022-12-20T01:22:50.437Z,56.89
2022-12-20T01:25:53.428Z,58.60
2022-12-20T01:28:59.518Z,58.55
2022-12-20T01:32:02.448Z,60.01
2022-12-20T01:35:06.786Z,60.54
2022-12-20T01:38:09.553Z,60.33
2022-12-20T01:41:16.340Z,60.91
2022-12-20T01:44:57.745Z,61.99
2022-12-20T01:48:01.186Z,62.68
2022-12-20T01:51:04.606Z,61.36
2022-12-20T01:54:13.470Z,59.61
2022-12-20T01:57:21.005Z,57.43
2022-12-20T02:00:24.178Z,56.98
2022-12-20T02:03:29.671Z,57.94
2022-12-20T02:06:32.511Z,59.33
2022-12-20T02:09:37.837Z,58.74
2022-12-20T02:12:42.711Z,59.03
2022-12-20T02:15:53.734Z,60.94
2022-12-20T02:19:07.499Z,60.27
2022-12-20T02:22:23.513Z,60.85
2022-12-20T02:25:57.848Z,61.46
2022-12-20T02:29:20.776Z,61.68
2022-12-20T02:32:28.581Z,61.97
2022-12-20T02:35:36.019Z,59.32
2022-12-20T02:38:39.096Z,58.33
2022-12-20T02:41:45.418Z,59.60
2022-12-20T02:45:08.376Z,58.16
2022-12-20T02:48:12.059Z,58.24
2022-12-20T02:51:17.742Z,59.89
2022-12-20T02:54:21.112Z,60.15
2022-12-20T02:57:32.968Z,61.39
2022-12-20T03:00:42.565Z,60.33
2022-12-20T03:03:45.977Z,61.89
2022-12-20T03:07:01.096Z,62.59
2022-12-20T03:10:04.630Z,62.54
2022-12-20T03:13:07.455Z,61.46
2022-12-20T03:16:10.543Z,60.36
2022-12-20T03:19:13.343Z,58.12
2022-12-20T03:22:16.118Z,56.21
2022-12-20T03:25:18.912Z,56.72
2022-12-20T03:28:21.685Z,57.99
2022-12-20T03:31:24.606Z,58.32
2022-12-20T03:34:27.996Z,58.92
2022-12-20T03:37:30.830Z,60.12
2022-12-20T03:40:33.633Z,59.88
2022-12-20T03:43:36.446Z,60.54
2022-12-20T03:46:39.320Z,61.03
2022-12-20T03:49:42.133Z,61.86
2022-12-20T03:52:44.961Z,62.18
2022-12-20T03:55:47.749Z,61.48
2022-12-20T03:58:50.513Z,60.53
2022-12-20T04:01:53.392Z,57.98
2022-12-20T04:04:56.205Z,56.96
2022-12-20T04:07:58.997Z,56.49
2022-12-20T04:11:17.043Z,57.65
2022-12-20T04:14:19.925Z,59.15
2022-12-20T04:17:22.731Z,59.55
2022-12-20T04:20:25.488Z,59.67
2022-12-20T04:23:28.244Z,59.57
2022-12-20T04:26:31.455Z,60.30
2022-12-20T04:29:34.235Z,61.32
2022-12-20T04:32:37.036Z,61.93
2022-12-20T04:35:39.920Z,61.44
2022-12-20T04:38:42.679Z,58.91
2022-12-20T04:41:45.489Z,56.91
2022-12-20T04:44:48.264Z,57.95
2022-12-20T04:47:51.257Z,59.48
2022-12-20T04:50:55.392Z,59.72
2022-12-20T04:53:58.193Z,59.95
2022-12-20T04:57:01.052Z,60.67
2022-12-20T05:00:05.244Z,61.11
2022-12-20T05:03:08.395Z,60.89
2022-12-20T05:06:12.045Z,61.19
2022-12-20T05:09:14.800Z,61.34
2022-12-20T05:12:17.567Z,60.85
2022-12-20T05:15:20.326Z,59.61
2022-12-20T05:18:23.921Z,60.50
2022-12-20T05:21:44.773Z,61.04
2022-12-20T05:25:06.088Z,60.85
2022-12-20T05:28:08.934Z,60.76
2022-12-20T05:31:11.893Z,60.44
2022-12-20T05:34:14.800Z,60.27
2022-12-20T05:37:17.905Z,61.35
2022-12-20T05:40:20.671Z,60.91
2022-12-20T05:43:23.438Z,61.10
2022-12-20T05:46:26.300Z,61.85
2022-12-20T05:49:29.147Z,60.73
2022-12-20T05:52:32.601Z,61.39
2022-12-20T05:55:35.355Z,62.72
2022-12-20T05:58:38.402Z,61.71
2022-12-20T06:01:41.289Z,59.27
2022-12-20T06:04:44.231Z,59.00
2022-12-20T06:07:47.008Z,58.24
2022-12-20T06:10:50.787Z,59.22
2022-12-20T06:13:53.627Z,59.87
2022-12-20T06:16:56.429Z,61.03
2022-12-20T06:19:59.244Z,60.36
2022-12-20T06:23:02.321Z,61.17
2022-12-20T06:26:08.620Z,61.60
2022-12-20T06:29:13.561Z,60.62
2022-12-20T06:32:16.321Z,60.88
2022-12-20T06:35:19.079Z,61.59
2022-12-20T06:38:21.891Z,62.22
2022-12-20T06:41:24.655Z,62.59
2022-12-20T06:44:27.403Z,61.32
2022-12-20T06:47:30.457Z,59.33
2022-12-20T06:50:33.331Z,57.93
2022-12-20T06:53:36.079Z,58.88
2022-12-20T06:56:41.575Z,58.33
2022-12-20T06:59:44.685Z,58.74
2022-12-20T07:02:47.595Z,58.60
2022-12-20T07:05:53.439Z,59.07
2022-12-20T07:08:56.229Z,59.33
2022-12-20T07:11:59.208Z,60.72
2022-12-20T07:15:01.987Z,61.66
2022-12-20T07:18:06.208Z,62.95
2022-12-20T07:21:09.077Z,63.46
2022-12-20T07:24:11.869Z,63.22
2022-12-20T07:27:14.633Z,61.33
2022-12-20T07:30:19.568Z,57.72
2022-12-20T07:33:22.355Z,57.71
2022-12-20T07:36:25.159Z,57.62
2022-12-20T07:39:28.637Z,58.10
2022-12-20T07:42:36.097Z,57.78
2022-12-20T07:45:42.181Z,57.77
2022-12-20T07:48:45.419Z,58.82
2022-12-20T07:51:52.275Z,59.47
2022-12-20T07:54:59.736Z,59.49
2022-12-20T07:58:06.538Z,60.17
2022-12-20T08:01:12.204Z,60.41
2022-12-20T08:04:20.581Z,60.22
2022-12-20T08:07:24.399Z,60.31
2022-12-20T08:10:28.413Z,60.17
2022-12-20T08:13:32.612Z,60.20
2022-12-20T08:16:35.783Z,60.22
2022-12-20T08:19:38.626Z,60.45
2022-12-20T08:22:41.410Z,60.29
2022-12-20T08:25:44.366Z,59.68
2022-12-20T08:28:47.162Z,59.65
2022-12-20T08:31:50.774Z,60.04
2022-12-20T08:34:54.732Z,61.81
2022-12-20T08:37:57.636Z,60.94
2022-12-20T08:41:04.472Z,62.41
2022-12-20T08:44:07.575Z,58.79
2022-12-20T08:47:10.444Z,57.15
2022-12-20T08:50:13.381Z,57.02
2022-12-20T08:53:16.216Z,57.13
2022-12-20T08:56:19.718Z,57.70
2022-12-20T08:59:22.612Z,58.39
2022-12-20T09:02:25.551Z,57.67
2022-12-20T09:05:28.516Z,58.60
2022-12-20T09:08:31.310Z,58.44
2022-12-20T09:11:34.569Z,58.31
2022-12-20T09:14:38.204Z,58.29
2022-12-20T09:17:41.052Z,58.63
2022-12-20T09:20:44.988Z,58.55
2022-12-20T09:23:50.156Z,58.99
2022-12-20T09:26:53.605Z,59.00
2022-12-20T09:29:57.088Z,59.26
2022-12-20T09:33:08.586Z,59.07
2022-12-20T09:36:16.647Z,60.08
2022-12-20T09:39:20.117Z,59.48
2022-12-20T09:42:26.779Z,59.22
2022-12-20T09:45:30.729Z,57.70
2022-12-20T09:48:37.769Z,56.97
2022-12-20T09:51:58.394Z,56.45
2022-12-20T09:55:13.083Z,57.94
2022-12-20T09:58:41.541Z,58.15
2022-12-20T10:01:47.039Z,57.32
2022-12-20T10:04:51.486Z,57.54
2022-12-20T10:08:03.496Z,57.53
2022-12-20T10:11:16.752Z,58.16
2022-12-20T10:14:37.279Z,59.09
2022-12-20T10:18:05.175Z,58.76
2022-12-20T10:21:16.381Z,58.42
2022-12-20T10:24:25.037Z,57.42
2022-12-20T10:27:28.863Z,57.52
2022-12-20T10:30:34.983Z,58.08
2022-12-20T10:33:38.789Z,55.90
2022-12-20T10:36:42.289Z,56.19
2022-12-20T10:39:49.929Z,57.34
2022-12-20T10:42:53.726Z,54.96
2022-12-20T10:46:00.540Z,56.23
2022-12-20T10:49:23.218Z,56.42
2022-12-20T10:52:28.853Z,55.72
2022-12-20T10:55:37.755Z,55.40
2022-12-20T10:58:41.647Z,55.28
2022-12-20T11:01:47.007Z,55.70
2022-12-20T11:05:00.122Z,55.05
2022-12-20T11:08:35.334Z,54.81
2022-12-20T11:11:39.523Z,56.59
2022-12-20T11:14:44.696Z,56.54
2022-12-20T11:17:51.442Z,57.38
2022-12-20T11:21:03.701Z,56.58
2022-12-20T11:24:14.331Z,56.89
2022-12-20T11:27:29.899Z,57.02
2022-12-20T11:30:43.967Z,54.94
2022-12-20T11:34:00.172Z,56.44
2022-12-20T11:37:23.355Z,56.15
2022-12-20T11:40:32.424Z,55.84
2022-12-20T11:44:24.596Z,55.06
2022-12-20T11:48:01.490Z,54.15
2022-12-20T11:51:15.274Z,53.41
2022-12-20T11:54:26.499Z,53.12
2022-12-20T11:58:01.769Z,52.56
2022-12-20T12:01:08.043Z,54.35
2022-12-20T12:04:18.190Z,53.37
2022-12-20T12:07:25.476Z,52.68
2022-12-20T12:10:34.240Z,52.37
2022-12-20T12:13:40.185Z,53.12
2022-12-20T12:16:49.079Z,52.37
2022-12-20T12:19:57.071Z,51.90
2022-12-20T12:23:05.856Z,53.20
2022-12-20T12:26:15.094Z,52.50
2022-12-20T12:29:19.704Z,51.72
2022-12-20T12:32:30.659Z,53.00
2022-12-20T12:35:54.023Z,53.63
2022-12-20T12:39:27.129Z,54.58
2022-12-20T12:42:47.666Z,54.87
2022-12-20T12:45:55.733Z,55.30
2022-12-20T12:49:05.118Z,54.13
2022-12-20T12:52:28.752Z,53.47
2022-12-20T12:55:42.916Z,53.19
2022-12-20T12:59:13.624Z,54.47
2022-12-20T13:02:52.467Z,53.76
2022-12-20T13:05:56.007Z,53.60
2022-12-20T13:09:20.217Z,54.58
2022-12-20T13:12:58.097Z,54.23
2022-12-20T13:17:09.469Z,54.17
2022-12-20T13:19:56.958Z,55.04
2022-12-20T13:23:17.148Z,55.70
2022-12-20T13:26:50.474Z,55.76
2022-12-20T13:29:58.222Z,56.42
2022-12-20T13:33:22.856Z,55.14
2022-12-20T13:36:37.147Z,56.18
2022-12-20T13:39:40.688Z,56.30
2022-12-20T13:42:44.985Z,56.71
2022-12-20T13:45:50.757Z,56.61
2022-12-20T13:49:02.420Z,57.00
2022-12-20T13:52:16.684Z,57.14
2022-12-20T14:25:27.095Z,66.76
2022-12-20T14:28:35.843Z,65.63
2022-12-20T14:31:43.018Z,65.48
2022-12-20T14:34:47.544Z,64.09
2022-12-20T14:37:56.537Z,63.58
2022-12-20T14:41:00.164Z,63.31
2022-12-20T14:44:14.082Z,62.58
2022-12-20T14:47:22.994Z,62.40
2022-12-20T14:50:30.355Z,62.44
2022-12-20T14:53:36.096Z,62.30
2022-12-20T14:56:46.993Z,62.38
2022-12-20T15:00:01.331Z,61.66
2022-12-20T15:03:17.293Z,60.63
2022-12-20T15:06:37.908Z,60.44
2022-12-20T15:09:42.073Z,62.19
2022-12-20T15:12:46.183Z,65.39
2022-12-20T15:15:49.818Z,66.67
2022-12-20T15:18:55.329Z,65.97
2022-12-20T15:22:00.085Z,65.21
2022-12-20T15:25:05.826Z,65.09
2022-12-20T15:28:17.779Z,64.65
2022-12-20T15:31:30.705Z,64.09
2022-12-20T15:34:38.436Z,63.24
2022-12-20T15:37:41.902Z,62.60
2022-12-20T15:40:46.664Z,62.28
2022-12-20T15:43:52.450Z,61.72
2022-12-20T15:46:56.340Z,61.54
2022-12-20T15:50:00.025Z,61.41
2022-12-20T15:53:03.726Z,61.33
2022-12-20T15:56:16.837Z,61.18
2022-12-20T15:59:57.882Z,61.06
2022-12-20T16:02:45.230Z,60.89
2022-12-20T16:05:50.633Z,60.89
2022-12-20T16:08:54.092Z,60.94
2022-12-20T16:11:57.700Z,60.80
2022-12-20T16:15:01.246Z,60.87
2022-12-20T16:18:05.208Z,60.59
2022-12-20T16:21:15.152Z,60.65
2022-12-20T16:24:20.668Z,60.69
2022-12-20T16:27:24.408Z,60.50
2022-12-20T16:30:28.492Z,60.59
2022-12-20T16:33:32.035Z,60.66
2022-12-20T16:36:35.733Z,60.42
2022-12-20T16:39:39.451Z,60.37
2022-12-20T16:42:43.233Z,60.38
2022-12-20T16:45:46.788Z,60.28
2022-12-20T16:48:50.420Z,59.94
2022-12-20T16:51:53.913Z,60.06
2022-12-20T16:54:57.587Z,60.39
2022-12-20T16:58:01.213Z,60.68
2022-12-20T17:01:04.957Z,60.82
2022-12-20T17:04:14.221Z,60.91
2022-12-20T17:07:17.812Z,61.16
2022-12-20T17:10:21.685Z,61.65
2022-12-20T17:13:25.432Z,62.33
2022-12-20T17:16:29.114Z,62.51
2022-12-20T17:19:32.760Z,62.44
2022-12-20T17:25:58.279Z,62.63
2022-12-20T17:29:02.599Z,62.62
2022-12-20T17:32:18.688Z,62.42
2022-12-20T17:35:25.828Z,62.39
2022-12-20T17:38:29.380Z,62.53
2022-12-20T17:41:33.824Z,62.51
2022-12-20T17:44:37.409Z,62.44
2022-12-20T17:47:40.911Z,62.68
2022-12-20T17:50:44.392Z,62.87
2022-12-20T17:53:50.968Z,62.86
2022-12-20T17:56:55.810Z,62.86
2022-12-20T17:59:59.395Z,62.87
2022-12-20T18:03:03.105Z,62.84
2022-12-20T18:06:09.315Z,62.82
2022-12-20T18:09:15.276Z,62.72
2022-12-20T18:12:18.794Z,62.67
2022-12-20T18:15:22.371Z,62.62
2022-12-20T18:18:25.957Z,62.57
2022-12-20T18:21:29.665Z,62.53
2022-12-20T18:24:33.431Z,62.36
2022-12-20T18:27:42.296Z,62.47
2022-12-20T18:30:45.801Z,62.56
2022-12-20T18:33:55.657Z,62.65
2022-12-20T18:37:01.643Z,62.60
2022-12-20T18:40:08.083Z,62.46
2022-12-20T18:43:11.584Z,62.32
2022-12-20T18:46:16.472Z,62.20
2022-12-20T18:49:20.539Z,62.35
2022-12-20T18:52:24.132Z,62.27
2022-12-20T18:55:27.642Z,62.36
2022-12-20T18:58:31.463Z,62.54
2022-12-20T19:01:36.229Z,62.75
2022-12-20T19:04:39.787Z,62.83
2022-12-20T19:07:43.349Z,63.03
2022-12-20T19:10:47.554Z,63.16
2022-12-20T19:13:51.647Z,63.30
2022-12-20T19:16:55.360Z,63.13
2022-12-20T19:19:58.932Z,62.96
2022-12-20T19:23:02.634Z,62.79
2022-12-20T19:26:08.337Z,62.81
2022-12-20T19:29:11.894Z,62.87
2022-12-20T19:32:15.467Z,62.84
2022-12-20T19:35:53.447Z,62.71
2022-12-20T19:38:44.855Z,62.90
2022-12-20T19:42:14.000Z,62.95
2022-12-20T19:45:12.926Z,62.91
2022-12-20T19:48:16.404Z,62.87
2022-12-20T19:51:21.200Z,62.95
2022-12-20T19:54:24.673Z,63.07
2022-12-20T19:57:28.128Z,62.98
2022-12-20T20:00:31.732Z,62.89
2022-12-20T20:03:36.152Z,62.87
2022-12-20T20:06:39.773Z,62.85
2022-12-20T20:09:43.283Z,62.86
2022-12-20T20:12:46.778Z,62.95
2022-12-20T20:15:54.891Z,63.10
2022-12-20T20:18:58.678Z,63.19
2022-12-20T20:22:02.192Z,63.19
2022-12-20T20:25:07.144Z,63.30
2022-12-20T20:28:10.612Z,63.35
2022-12-20T20:31:15.829Z,63.43
2022-12-20T20:34:19.326Z,63.55
2022-12-20T20:37:22.877Z,63.48
2022-12-20T20:40:26.522Z,63.21
2022-12-20T20:43:31.866Z,63.04
2022-12-20T20:46:35.612Z,62.92
2022-12-20T20:49:39.237Z,62.89
2022-12-20T20:52:43.352Z,62.88
2022-12-20T20:55:47.162Z,62.76
2022-12-20T20:58:51.901Z,62.62
2022-12-20T21:01:55.612Z,62.52
2022-12-20T21:05:52.591Z,62.31
2022-12-20T21:08:22.877Z,62.29
2022-12-20T21:11:27.651Z,61.99
2022-12-20T21:15:12.282Z,61.85
2022-12-20T21:17:54.995Z,61.70
2022-12-20T21:20:58.501Z,61.52
2022-12-20T21:24:02.093Z,61.41
2022-12-20T21:27:05.670Z,61.37
2022-12-20T21:30:11.207Z,61.40
2022-12-20T21:33:14.756Z,61.59
2022-12-20T21:36:19.297Z,61.63
2022-12-20T21:39:23.049Z,61.59
2022-12-20T21:42:26.630Z,61.61
2022-12-20T21:45:30.228Z,61.67
2022-12-20T21:48:33.795Z,61.63
2022-12-20T21:51:37.341Z,61.50
2022-12-20T21:54:42.352Z,61.47
2022-12-20T21:57:47.568Z,61.51
2022-12-20T22:00:54.838Z,61.54
2022-12-20T22:04:00.850Z,61.89
2022-12-20T22:07:04.422Z,62.27
2022-12-20T22:10:10.156Z,62.69
2022-12-20T22:13:14.334Z,62.94
2022-12-20T22:16:20.306Z,63.43
2022-12-20T22:19:23.889Z,63.05
2022-12-20T22:22:27.462Z,63.02
2022-12-20T22:25:31.180Z,63.44
2022-12-20T22:28:34.656Z,63.35
2022-12-20T22:31:38.323Z,63.45
2022-12-20T22:34:41.962Z,63.26
2022-12-20T22:37:45.594Z,63.34
2022-12-20T22:40:49.121Z,63.15
2022-12-20T22:43:53.213Z,63.24
2022-12-20T22:47:06.319Z,63.27
2022-12-20T22:50:11.884Z,63.04
2022-12-20T22:53:15.379Z,62.71
2022-12-20T22:56:20.514Z,62.53
2022-12-20T22:59:24.218Z,62.22
2022-12-20T23:02:28.246Z,62.20
2022-12-20T23:05:31.873Z,62.49
2022-12-20T23:08:36.737Z,62.32
2022-12-20T23:11:58.810Z,62.11
2022-12-20T23:15:20.747Z,62.35
2022-12-20T23:18:24.299Z,62.95
2022-12-20T23:21:46.394Z,63.07
2022-12-20T23:24:49.835Z,63.17
2022-12-20T23:27:53.778Z,63.12
2022-12-20T23:30:57.398Z,63.00
2022-12-20T23:34:01.413Z,63.12
2022-12-20T23:37:05.063Z,62.86
2022-12-20T23:40:11.409Z,62.30
2022-12-20T23:43:13.863Z,62.34
2022-12-20T23:46:19.269Z,62.54
2022-12-20T23:49:22.920Z,62.37
2022-12-20T23:52:26.562Z,63.06
2022-12-20T23:55:30.070Z,63.87
2022-12-20T23:58:33.846Z,63.38
